Friday, November 28, 2014
08:37 UTC
  |  Log In   |  Register Free
Airport Search:

Okmulgee Regional Airport
(KOKM)

Okmulgee Regional Airport Diagram
No Airport Diagram Available

FAA data valid effective November 13, 2014 - January 08, 2015 (unless otherwise noted).

 
 
 
 
 
 
 
 
 
 
 
 
 
 

Current Aviation Weather for Okmulgee Regional Airport (KOKM)

The most recent METAR observation for KOKM was updated at: 0814
METAR Summary (Translated METAR)
KOKM
280755Z AUTO 19007KT 150V210 10SM CLR 05/M03 A3026 RMK AO2 T00461033
KF10
081459Z 31001KT 16/16 RMK PK WND 29004KT PCPN 1/3/6/12/24H 0.00 0.01 0.02 0.02 0.04
(16 nm SW from KOKM)
KRVS
280753Z 18004KT 10SM CLR 01/M03 A3025 RMK AO2 SLP251 T00061033
(22.4 nm NW from KOKM)
TAF Summary (Translated TAF)
KRVS
(22.4 nm NW from KOKM)
280520Z 2806/2906 17006KT P6SM BKN250 FM281600 19015G25KT P6SM SCT250 FM290000 18008KT P6SM SCT250
  Airport Weather Conditions for KOKM

 Current Weather at OKM
41° F
Fair
South winds at 6.9 mph
OKM NOAA Radar

Pressure: 30.26 in
Humidity: 57%
Wind: South at 6.9 MPH (6 KT)
Dew Point: 26.2°F
Visibility: 10.00 mi


Airport Weather Forecast for KOKM

Translated METAR and TAF for KOKM
Translated METAR for KOKM (0832 UTC 28 November 2014)
found at http://aviationweather.gov/adds/metars/
 
METAR text: KOKM 280815Z AUTO 17005KT 10SM CLR 05/M03 A3026 RMK AO2 T00451033
Conditions at: KOKM (OKMULGEE , OK, US) observed 0815 UTC 28 November 2014
Temperature: 4.5°C (40°F)
Dewpoint: -3.3°C (26°F) [RH = 57%]
Pressure (altimeter): 30.26 inches Hg (1024.8 mb)
Winds: from the S (170 degrees) at 6 MPH (5 knots; 2.6 m/s)
Visibility: 10 or more miles (16+ km)
Ceiling: at least 12,000 feet AGL
Clouds: sky clear below 12,000 feet AGL
Weather: automated observation with no human augmentation;
there may or may not be significant weather present at this time
Translated TAF for KOKM

There is no translated TAF available for this airport

Find All Airport Services Find A Hotel Find A Rental Car Find A Golf Course Find A Restaurant $100 Hamburger



FBO's on the Field
FBO Company Facility Photos Services Transportation Aviation Fuel Prices: Prices include tax
Catering Weather Repair Courtesy Rental Type 100LL JetA JetA+ MOGAS 8087
 
Okmulgee Regional Airport

This FBO has not yet been rated
FS:Phillips 66
Last Updated: Nov-20
Login to update fuel prices
SS:
Contact Okmulgee Regional AirportMore FBO Information
 
Add another FBO Facility Photos Catering Weather Repair Courtesy Rental Type 100LL JetA JetA+ MOGAS 8087
Services Transportation Aviation Fuel Prices: Prices include tax


model-print
model-print
model-print
model-print